sensor_id;sensor_type;location;lat;lon;timestamp;pressure;altitude;pressure_sealevel;temperature;humidity
15678;BME280;7939;50.814;6.368;2023-05-08T00:00:13;100298.47;;;19.35;66.44
15678;BME280;7939;50.814;6.368;2023-05-08T00:02:40;100290.69;;;19.35;66.61
15678;BME280;7939;50.814;6.368;2023-05-08T00:05:07;100297.63;;;19.34;66.96
15678;BME280;7939;50.814;6.368;2023-05-08T00:07:34;100292.50;;;19.33;66.71
15678;BME280;7939;50.814;6.368;2023-05-08T00:10:01;100293.34;;;19.33;66.73
15678;BME280;7939;50.814;6.368;2023-05-08T00:12:29;100296.84;;;19.32;66.32
15678;BME280;7939;50.814;6.368;2023-05-08T00:14:56;100300.31;;;19.31;66.22
15678;BME280;7939;50.814;6.368;2023-05-08T00:17:23;100301.16;;;19.32;66.62
15678;BME280;7939;50.814;6.368;2023-05-08T00:19:50;100300.31;;;19.31;66.36
15678;BME280;7939;50.814;6.368;2023-05-08T00:22:17;100304.66;;;19.31;66.17
15678;BME280;7939;50.814;6.368;2023-05-08T00:24:44;100304.66;;;19.29;66.48
15678;BME280;7939;50.814;6.368;2023-05-08T00:27:11;100306.41;;;19.29;66.33
15678;BME280;7939;50.814;6.368;2023-05-08T00:29:39;100308.22;;;19.27;66.68
15678;BME280;7939;50.814;6.368;2023-05-08T00:32:06;100302.19;;;19.26;66.53
15678;BME280;7939;50.814;6.368;2023-05-08T00:34:33;100309.09;;;19.26;66.32
15678;BME280;7939;50.814;6.368;2023-05-08T00:36:59;100317.72;;;19.26;66.39
15678;BME280;7939;50.814;6.368;2023-05-08T00:39:27;100310.00;;;19.25;66.36
15678;BME280;7939;50.814;6.368;2023-05-08T00:41:53;100308.31;;;19.24;66.69
15678;BME280;7939;50.814;6.368;2023-05-08T00:44:20;100304.84;;;19.23;66.52
15678;BME280;7939;50.814;6.368;2023-05-08T00:46:48;100302.25;;;19.23;66.19
15678;BME280;7939;50.814;6.368;2023-05-08T00:49:15;100302.28;;;19.22;66.88
15678;BME280;7939;50.814;6.368;2023-05-08T00:51:43;100298.00;;;19.21;66.62
15678;BME280;7939;50.814;6.368;2023-05-08T00:54:10;100300.59;;;19.21;66.69
15678;BME280;7939;50.814;6.368;2023-05-08T00:56:37;100297.16;;;19.20;66.93
15678;BME280;7939;50.814;6.368;2023-05-08T00:59:08;100298.06;;;19.19;66.86
15678;BME280;7939;50.814;6.368;2023-05-08T01:01:36;100304.97;;;19.19;66.71
15678;BME280;7939;50.814;6.368;2023-05-08T01:04:06;100298.94;;;19.18;66.91
15678;BME280;7939;50.814;6.368;2023-05-08T01:06:32;100305.88;;;19.18;66.48
15678;BME280;7939;50.814;6.368;2023-05-08T01:09:01;100298.97;;;19.17;66.38
15678;BME280;7939;50.814;6.368;2023-05-08T01:11:40;100304.16;;;19.17;66.87
15678;BME280;7939;50.814;6.368;2023-05-08T01:14:12;100306.75;;;19.17;66.81
15678;BME280;7939;50.814;6.368;2023-05-08T01:16:44;100310.22;;;19.16;66.97
15678;BME280;7939;50.814;6.368;2023-05-08T01:19:41;100311.97;;;19.15;66.58
15678;BME280;7939;50.814;6.368;2023-05-08T01:22:25;100317.22;;;19.13;66.66
15678;BME280;7939;50.814;6.368;2023-05-08T01:25:19;100313.78;;;19.13;66.63
15678;BME280;7939;50.814;6.368;2023-05-08T01:28:12;100318.09;;;19.12;66.62
15678;BME280;7939;50.814;6.368;2023-05-08T01:30:59;100316.41;;;19.11;66.54
15678;BME280;7939;50.814;6.368;2023-05-08T01:33:32;100318.16;;;19.11;66.81
15678;BME280;7939;50.814;6.368;2023-05-08T01:36:10;100323.34;;;19.11;67.08
15678;BME280;7939;50.814;6.368;2023-05-08T01:38:48;100321.59;;;19.10;66.62
15678;BME280;7939;50.814;6.368;2023-05-08T01:41:24;100324.19;;;19.10;67.09
15678;BME280;7939;50.814;6.368;2023-05-08T01:43:56;100324.25;;;19.08;67.00
15678;BME280;7939;50.814;6.368;2023-05-08T01:46:26;100326.84;;;19.08;66.60
15678;BME280;7939;50.814;6.368;2023-05-08T01:48:58;100326.00;;;19.08;67.02
15678;BME280;7939;50.814;6.368;2023-05-08T01:51:27;100325.13;;;19.07;66.39
15678;BME280;7939;50.814;6.368;2023-05-08T01:53:58;100330.31;;;19.07;66.74
15678;BME280;7939;50.814;6.368;2023-05-08T01:56:27;100326.03;;;19.06;66.12
15678;BME280;7939;50.814;6.368;2023-05-08T01:58:57;100329.53;;;19.05;66.50
15678;BME280;7939;50.814;6.368;2023-05-08T02:01:25;100326.09;;;19.05;66.18
15678;BME280;7939;50.814;6.368;2023-05-08T02:03:56;100325.19;;;19.04;66.20
15678;BME280;7939;50.814;6.368;2023-05-08T02:06:24;100334.72;;;19.04;66.42
15678;BME280;7939;50.814;6.368;2023-05-08T02:08:52;100338.19;;;19.03;66.27
15678;BME280;7939;50.814;6.368;2023-05-08T02:11:20;100343.44;;;19.01;66.37
15678;BME280;7939;50.814;6.368;2023-05-08T02:13:49;100340.88;;;19.00;66.51
15678;BME280;7939;50.814;6.368;2023-05-08T02:16:17;100348.66;;;19.00;66.33
15678;BME280;7939;50.814;6.368;2023-05-08T02:18:49;100343.47;;;19.00;66.50
15678;BME280;7939;50.814;6.368;2023-05-08T02:21:18;100350.41;;;18.99;66.57
15678;BME280;7939;50.814;6.368;2023-05-08T02:23:46;100349.56;;;18.97;66.96
15678;BME280;7939;50.814;6.368;2023-05-08T02:26:14;100346.13;;;18.97;67.00
15678;BME280;7939;50.814;6.368;2023-05-08T02:28:41;100348.72;;;18.97;66.62
15678;BME280;7939;50.814;6.368;2023-05-08T02:31:09;100347.91;;;18.95;66.32
15678;BME280;7939;50.814;6.368;2023-05-08T02:33:38;100348.75;;;18.95;66.86
15678;BME280;7939;50.814;6.368;2023-05-08T02:36:06;100344.47;;;18.94;66.63
15678;BME280;7939;50.814;6.368;2023-05-08T02:38:36;100345.38;;;18.93;66.36
15678;BME280;7939;50.814;6.368;2023-05-08T02:41:04;100351.41;;;18.94;66.48
15678;BME280;7939;50.814;6.368;2023-05-08T02:43:32;100345.38;;;18.93;66.07
15678;BME280;7939;50.814;6.368;2023-05-08T02:46:05;100351.41;;;18.94;66.51
15678;BME280;7939;50.814;6.368;2023-05-08T02:48:37;100348.81;;;18.94;66.24
15678;BME280;7939;50.814;6.368;2023-05-08T02:51:12;100350.56;;;18.93;65.74
15678;BME280;7939;50.814;6.368;2023-05-08T02:53:45;100337.63;;;18.92;66.19
15678;BME280;7939;50.814;6.368;2023-05-08T02:56:22;100342.78;;;18.92;66.17
15678;BME280;7939;50.814;6.368;2023-05-08T02:58:54;100344.53;;;18.91;65.79
15678;BME280;7939;50.814;6.368;2023-05-08T03:01:26;100334.22;;;18.90;65.82
15678;BME280;7939;50.814;6.368;2023-05-08T03:03:58;100336.81;;;18.90;65.89
15678;BME280;7939;50.814;6.368;2023-05-08T03:06:32;100336.88;;;18.88;65.71
15678;BME280;7939;50.814;6.368;2023-05-08T03:09:03;100334.28;;;18.88;65.75
15678;BME280;7939;50.814;6.368;2023-05-08T03:11:37;100327.41;;;18.85;66.16
15678;BME280;7939;50.814;6.368;2023-05-08T03:14:09;100325.69;;;18.86;66.18
15678;BME280;7939;50.814;6.368;2023-05-08T03:16:37;100332.59;;;18.85;65.70
15678;BME280;7939;50.814;6.368;2023-05-08T03:19:08;100331.78;;;18.83;65.72
15678;BME280;7939;50.814;6.368;2023-05-08T03:21:37;100324.03;;;18.83;65.30
15678;BME280;7939;50.814;6.368;2023-05-08T03:24:08;100326.66;;;18.82;65.49
15678;BME280;7939;50.814;6.368;2023-05-08T03:26:35;100332.72;;;18.81;65.78
15678;BME280;7939;50.814;6.368;2023-05-08T03:29:03;100321.47;;;18.82;65.54
15678;BME280;7939;50.814;6.368;2023-05-08T03:31:31;100330.16;;;18.81;65.70
15678;BME280;7939;50.814;6.368;2023-05-08T03:33:59;100324.13;;;18.80;65.80
15678;BME280;7939;50.814;6.368;2023-05-08T03:36:26;100326.72;;;18.79;65.56
15678;BME280;7939;50.814;6.368;2023-05-08T03:38:53;100319.00;;;18.77;65.89
15678;BME280;7939;50.814;6.368;2023-05-08T03:41:21;100325.91;;;18.77;65.48
15678;BME280;7939;50.814;6.368;2023-05-08T03:43:49;100330.25;;;18.76;65.92
15678;BME280;7939;50.814;6.368;2023-05-08T03:46:16;100334.63;;;18.74;65.64
15678;BME280;7939;50.814;6.368;2023-05-08T03:48:43;100329.47;;;18.73;65.94
15678;BME280;7939;50.814;6.368;2023-05-08T03:51:11;100327.75;;;18.72;65.66
15678;BME280;7939;50.814;6.368;2023-05-08T03:53:38;100336.44;;;18.71;65.78
15678;BME280;7939;50.814;6.368;2023-05-08T03:56:05;100330.44;;;18.69;65.83
15678;BME280;7939;50.814;6.368;2023-05-08T03:58:39;100330.50;;;18.67;65.69
15678;BME280;7939;50.814;6.368;2023-05-08T04:01:11;100324.44;;;18.67;65.31
15678;BME280;7939;50.814;6.368;2023-05-08T04:03:52;100328.72;;;18.66;65.54
15678;BME280;7939;50.814;6.368;2023-05-08T04:06:24;100333.06;;;18.66;65.40
15678;BME280;7939;50.814;6.368;2023-05-08T04:09:00;100339.97;;;18.65;65.44
15678;BME280;7939;50.814;6.368;2023-05-08T04:11:30;100337.44;;;18.64;65.60
15678;BME280;7939;50.814;6.368;2023-05-08T04:14:02;100340.06;;;18.62;65.55
15678;BME280;7939;50.814;6.368;2023-05-08T04:16:35;100331.44;;;18.62;65.15
15678;BME280;7939;50.814;6.368;2023-05-08T04:19:07;100334.06;;;18.60;65.18
15678;BME280;7939;50.814;6.368;2023-05-08T04:21:35;100335.78;;;18.59;65.36
15678;BME280;7939;50.814;6.368;2023-05-08T04:24:06;100333.25;;;18.58;65.21
15678;BME280;7939;50.814;6.368;2023-05-08T04:26:33;100338.44;;;18.58;65.05
15678;BME280;7939;50.814;6.368;2023-05-08T04:29:01;100339.31;;;18.57;65.19
15678;BME280;7939;50.814;6.368;2023-05-08T04:31:29;100336.72;;;18.57;65.35
15678;BME280;7939;50.814;6.368;2023-05-08T04:33:56;100339.31;;;18.57;65.08
15678;BME280;7939;50.814;6.368;2023-05-08T04:36:23;100333.28;;;18.56;65.26
15678;BME280;7939;50.814;6.368;2023-05-08T04:38:53;100334.19;;;18.55;65.44
15678;BME280;7939;50.814;6.368;2023-05-08T04:41:20;100331.59;;;18.55;65.15
15678;BME280;7939;50.814;6.368;2023-05-08T04:43:47;100339.38;;;18.55;65.12
15678;BME280;7939;50.814;6.368;2023-05-08T04:46:16;100336.78;;;18.55;64.92
15678;BME280;7939;50.814;6.368;2023-05-08T04:48:42;100332.50;;;18.54;65.36
15678;BME280;7939;50.814;6.368;2023-05-08T04:51:09;100341.09;;;18.55;65.32
15678;BME280;7939;50.814;6.368;2023-05-08T04:53:36;100346.28;;;18.55;65.36
15678;BME280;7939;50.814;6.368;2023-05-08T04:56:03;100346.28;;;18.53;65.51
15678;BME280;7939;50.814;6.368;2023-05-08T04:58:30;100344.56;;;18.54;65.33
15678;BME280;7939;50.814;6.368;2023-05-08T05:01:00;100354.06;;;18.53;65.61
15678;BME280;7939;50.814;6.368;2023-05-08T05:03:28;100356.66;;;18.53;65.53
15678;BME280;7939;50.814;6.368;2023-05-08T05:05:58;100353.25;;;18.51;65.95
15678;BME280;7939;50.814;6.368;2023-05-08T05:08:25;100355.84;;;18.51;66.00
15678;BME280;7939;50.814;6.368;2023-05-08T05:10:52;100355.84;;;18.51;66.05
15678;BME280;7939;50.814;6.368;2023-05-08T05:13:18;100361.88;;;18.52;66.21
15678;BME280;7939;50.814;6.368;2023-05-08T05:15:45;100363.59;;;18.51;65.72
15678;BME280;7939;50.814;6.368;2023-05-08T05:18:12;100367.94;;;18.51;65.60
15678;BME280;7939;50.814;6.368;2023-05-08T05:20:40;100368.78;;;18.51;66.25
15678;BME280;7939;50.814;6.368;2023-05-08T05:23:06;100373.09;;;18.51;66.32
15678;BME280;7939;50.814;6.368;2023-05-08T05:25:33;100372.25;;;18.50;66.41
15678;BME280;7939;50.814;6.368;2023-05-08T05:28:00;100376.53;;;18.51;66.06
15678;BME280;7939;50.814;6.368;2023-05-08T05:30:27;100367.03;;;18.52;66.62
15678;BME280;7939;50.814;6.368;2023-05-08T05:32:54;100373.97;;;18.51;66.46
15678;BME280;7939;50.814;6.368;2023-05-08T05:35:21;100373.06;;;18.52;66.31
15678;BME280;7939;50.814;6.368;2023-05-08T05:37:49;100373.06;;;18.52;66.00
15678;BME280;7939;50.814;6.368;2023-05-08T05:40:15;100369.59;;;18.53;66.57
15678;BME280;7939;50.814;6.368;2023-05-08T05:42:47;100376.50;;;18.53;66.25
15678;BME280;7939;50.814;6.368;2023-05-08T05:45:14;100383.38;;;18.54;66.41
15678;BME280;7939;50.814;6.368;2023-05-08T05:47:43;100378.19;;;18.54;66.06
15678;BME280;7939;50.814;6.368;2023-05-08T05:50:10;100388.53;;;18.55;65.53
15678;BME280;7939;50.814;6.368;2023-05-08T05:52:37;100384.16;;;18.57;65.75
15678;BME280;7939;50.814;6.368;2023-05-08T05:55:05;100382.44;;;18.58;65.80
15678;BME280;7939;50.814;6.368;2023-05-08T05:57:32;100390.16;;;18.59;66.05
15678;BME280;7939;50.814;6.368;2023-05-08T05:59:59;100387.56;;;18.61;65.96
15678;BME280;7939;50.814;6.368;2023-05-08T06:02:26;100379.75;;;18.63;65.83
15678;BME280;7939;50.814;6.368;2023-05-08T06:04:52;100389.25;;;18.62;65.43
15678;BME280;7939;50.814;6.368;2023-05-08T06:07:19;100390.06;;;18.64;65.60
15678;BME280;7939;50.814;6.368;2023-05-08T06:09:46;100393.50;;;18.65;64.90
15678;BME280;7939;50.814;6.368;2023-05-08T06:12:14;100392.59;;;18.66;65.25
15678;BME280;7939;50.814;6.368;2023-05-08T06:14:40;100390.88;;;18.66;65.58
15678;BME280;7939;50.814;6.368;2023-05-08T06:17:07;100387.41;;;18.66;65.12
15678;BME280;7939;50.814;6.368;2023-05-08T06:19:34;100395.22;;;18.67;65.44
15678;BME280;7939;50.814;6.368;2023-05-08T06:22:01;100390.88;;;18.66;65.25
15678;BME280;7939;50.814;6.368;2023-05-08T06:24:27;100402.09;;;18.68;65.45
15678;BME280;7939;50.814;6.368;2023-05-08T06:26:54;100402.97;;;18.67;65.84
15678;BME280;7939;50.814;6.368;2023-05-08T06:29:22;100400.38;;;18.67;65.67
15678;BME280;7939;50.814;6.368;2023-05-08T06:31:48;100409.88;;;18.65;65.86
15678;BME280;7939;50.814;6.368;2023-05-08T06:34:15;100398.66;;;18.68;66.63
15678;BME280;7939;50.814;6.368;2023-05-08T06:36:42;100399.44;;;18.70;66.52
15678;BME280;7939;50.814;6.368;2023-05-08T06:39:08;100397.66;;;18.72;66.29
15678;BME280;7939;50.814;6.368;2023-05-08T06:41:35;100401.09;;;18.72;66.17
15678;BME280;7939;50.814;6.368;2023-05-08T06:44:02;100407.13;;;18.73;65.76
15678;BME280;7939;50.814;6.368;2023-05-08T06:46:30;100397.63;;;18.75;66.18
15678;BME280;7939;50.814;6.368;2023-05-08T06:48:57;100405.34;;;18.76;66.04
15678;BME280;7939;50.814;6.368;2023-05-08T06:51:24;100401.09;;;18.74;66.40
15678;BME280;7939;50.814;6.368;2023-05-08T06:53:50;100406.28;;;18.74;67.45
15678;BME280;7939;50.814;6.368;2023-05-08T06:56:17;100407.13;;;18.73;68.19
15678;BME280;7939;50.814;6.368;2023-05-08T06:58:43;100407.97;;;18.75;68.07
15678;BME280;7939;50.814;6.368;2023-05-08T07:01:10;100406.19;;;18.77;67.58
15678;BME280;7939;50.814;6.368;2023-05-08T07:03:38;100407.81;;;18.81;67.36
15678;BME280;7939;50.814;6.368;2023-05-08T07:06:06;100409.47;;;18.83;67.47
15678;BME280;7939;50.814;6.368;2023-05-08T07:08:34;100412.00;;;18.86;67.37
15678;BME280;7939;50.814;6.368;2023-05-08T07:11:00;100414.56;;;18.88;66.56
15678;BME280;7939;50.814;6.368;2023-05-08T07:13:28;100415.41;;;18.89;67.30
15678;BME280;7939;50.814;6.368;2023-05-08T07:15:55;100418.75;;;18.94;67.10
15678;BME280;7939;50.814;6.368;2023-05-08T07:18:22;100420.44;;;18.95;66.39
15678;BME280;7939;50.814;6.368;2023-05-08T07:20:50;100415.22;;;18.96;66.43
15678;BME280;7939;50.814;6.368;2023-05-08T07:23:16;100420.34;;;18.98;67.26
15678;BME280;7939;50.814;6.368;2023-05-08T07:25:43;100417.75;;;18.99;66.49
15678;BME280;7939;50.814;6.368;2023-05-08T07:28:10;100420.25;;;19.02;66.72
15678;BME280;7939;50.814;6.368;2023-05-08T07:30:37;100423.63;;;19.04;67.27
15678;BME280;7939;50.814;6.368;2023-05-08T07:33:03;100422.78;;;19.05;66.71
15678;BME280;7939;50.814;6.368;2023-05-08T07:35:31;100422.78;;;19.05;66.68
15678;BME280;7939;50.814;6.368;2023-05-08T07:37:59;100425.31;;;19.07;67.35
15678;BME280;7939;50.814;6.368;2023-05-08T07:40:26;100419.28;;;19.06;67.48
15678;BME280;7939;50.814;6.368;2023-05-08T07:42:53;100419.25;;;19.08;66.92
15678;BME280;7939;50.814;6.368;2023-05-08T07:45:20;100418.34;;;19.09;67.21
15678;BME280;7939;50.814;6.368;2023-05-08T07:47:48;100417.50;;;19.08;66.54
15678;BME280;7939;50.814;6.368;2023-05-08T07:50:15;100420.94;;;19.09;67.49
15678;BME280;7939;50.814;6.368;2023-05-08T07:52:41;100418.34;;;19.09;67.00
15678;BME280;7939;50.814;6.368;2023-05-08T07:55:10;100422.63;;;19.11;67.29
15678;BME280;7939;50.814;6.368;2023-05-08T07:57:38;100426.09;;;19.10;67.53
15678;BME280;7939;50.814;6.368;2023-05-08T08:00:06;100431.25;;;19.10;67.25
15678;BME280;7939;50.814;6.368;2023-05-08T08:02:33;100418.31;;;19.10;67.17
15678;BME280;7939;50.814;6.368;2023-05-08T08:05:00;100433.06;;;19.08;67.25
15678;BME280;7939;50.814;6.368;2023-05-08T08:07:27;100428.66;;;19.10;67.66
15678;BME280;7939;50.814;6.368;2023-05-08T08:09:53;100432.16;;;19.11;66.96
15678;BME280;7939;50.814;6.368;2023-05-08T08:12:21;100432.94;;;19.13;67.61
15678;BME280;7939;50.814;6.368;2023-05-08T08:14:48;100433.78;;;19.13;67.28
15678;BME280;7939;50.814;6.368;2023-05-08T08:17:15;100432.09;;;19.12;67.17
15678;BME280;7939;50.814;6.368;2023-05-08T08:19:42;100436.50;;;19.09;67.51
15678;BME280;7939;50.814;6.368;2023-05-08T08:22:08;100442.47;;;19.12;66.63
15678;BME280;7939;50.814;6.368;2023-05-08T08:24:35;100431.13;;;19.17;67.07
15678;BME280;7939;50.814;6.368;2023-05-08T08:27:02;100428.47;;;19.20;67.03
15678;BME280;7939;50.814;6.368;2023-05-08T08:29:30;100437.19;;;19.17;66.89
15678;BME280;7939;50.814;6.368;2023-05-08T08:31:57;100429.25;;;19.22;66.99
15678;BME280;7939;50.814;6.368;2023-05-08T08:34:24;100429.22;;;19.25;66.75
15678;BME280;7939;50.814;6.368;2023-05-08T08:36:51;100423.94;;;19.28;66.45
15678;BME280;7939;50.814;6.368;2023-05-08T08:39:18;100418.75;;;19.28;66.45
15678;BME280;7939;50.814;6.368;2023-05-08T08:41:44;100421.22;;;19.32;66.69
15678;BME280;7939;50.814;6.368;2023-05-08T08:44:11;100425.50;;;19.33;66.62
15678;BME280;7939;50.814;6.368;2023-05-08T08:46:47;100424.81;;;19.27;66.63
15678;BME280;7939;50.814;6.368;2023-05-08T08:49:17;100430.66;;;19.35;66.48
15678;BME280;7939;50.814;6.368;2023-05-08T08:51:49;100421.06;;;19.38;66.27
15678;BME280;7939;50.814;6.368;2023-05-08T08:54:20;100418.38;;;19.43;66.47
15678;BME280;7939;50.814;6.368;2023-05-08T08:56:48;100418.38;;;19.41;66.21
15678;BME280;7939;50.814;6.368;2023-05-08T08:59:17;100422.50;;;19.50;66.16
15678;BME280;7939;50.814;6.368;2023-05-08T09:01:47;100426.84;;;19.50;66.17
15678;BME280;7939;50.814;6.368;2023-05-08T09:04:15;100424.09;;;19.56;66.06
15678;BME280;7939;50.814;6.368;2023-05-08T09:06:42;100418.78;;;19.60;66.18
15678;BME280;7939;50.814;6.368;2023-05-08T09:09:10;100419.63;;;19.61;65.80
15678;BME280;7939;50.814;6.368;2023-05-08T09:11:37;100419.56;;;19.64;65.94
15678;BME280;7939;50.814;6.368;2023-05-08T09:14:05;100417.88;;;19.63;65.96
15678;BME280;7939;50.814;6.368;2023-05-08T09:16:32;100421.22;;;19.66;65.67
15678;BME280;7939;50.814;6.368;2023-05-08T09:19:01;100420.25;;;19.71;65.43
15678;BME280;7939;50.814;6.368;2023-05-08T09:21:29;100417.59;;;19.72;65.32
15678;BME280;7939;50.814;6.368;2023-05-08T09:23:56;100419.22;;;19.76;64.78
15678;BME280;7939;50.814;6.368;2023-05-08T09:26:28;100419.13;;;19.79;64.70
15678;BME280;7939;50.814;6.368;2023-05-08T09:29:10;100423.41;;;19.82;64.25
15678;BME280;7939;50.814;6.368;2023-05-08T09:31:38;100414.66;;;19.84;64.17
15678;BME280;7939;50.814;6.368;2023-05-08T09:34:07;100420.81;;;19.82;64.97
15678;BME280;7939;50.814;6.368;2023-05-08T09:36:34;100414.66;;;19.84;65.35
15678;BME280;7939;50.814;6.368;2023-05-08T09:39:01;100420.69;;;19.86;65.31
15678;BME280;7939;50.814;6.368;2023-05-08T09:41:28;100414.63;;;19.86;65.34
15678;BME280;7939;50.814;6.368;2023-05-08T09:44:03;100415.50;;;19.86;65.05
15678;BME280;7939;50.814;6.368;2023-05-08T09:46:31;100417.94;;;19.91;64.89
15678;BME280;7939;50.814;6.368;2023-05-08T09:48:59;100412.69;;;19.94;64.49
15678;BME280;7939;50.814;6.368;2023-05-08T09:51:29;100414.22;;;20.01;65.03
15678;BME280;7939;50.814;6.368;2023-05-08T09:53:57;100414.09;;;20.06;64.54
15678;BME280;7939;50.814;6.368;2023-05-08T09:56:28;100417.41;;;20.09;64.68
15678;BME280;7939;50.814;6.368;2023-05-08T09:58:55;100417.34;;;20.12;64.83
15678;BME280;7939;50.814;6.368;2023-05-08T10:01:30;100416.28;;;20.19;64.49
15678;BME280;7939;50.814;6.368;2023-05-08T10:03:57;100409.28;;;20.21;64.29
15678;BME280;7939;50.814;6.368;2023-05-08T10:06:24;100410.72;;;20.32;64.13
15678;BME280;7939;50.814;6.368;2023-05-08T10:09:10;100407.97;;;20.36;63.90
15678;BME280;7939;50.814;6.368;2023-05-08T10:11:37;100409.63;;;20.39;63.86
15678;BME280;7939;50.814;6.368;2023-05-08T10:14:04;100412.19;;;20.40;63.80
15678;BME280;7939;50.814;6.368;2023-05-08T10:16:35;100410.47;;;20.39;63.59
15678;BME280;7939;50.814;6.368;2023-05-08T10:19:11;100406.25;;;20.37;64.25
15678;BME280;7939;50.814;6.368;2023-05-08T10:21:40;100408.72;;;20.40;63.75
15678;BME280;7939;50.814;6.368;2023-05-08T10:24:13;100404.44;;;20.39;63.66
15678;BME280;7939;50.814;6.368;2023-05-08T10:26:42;100413.13;;;20.38;63.98
15678;BME280;7939;50.814;6.368;2023-05-08T10:29:16;100407.97;;;20.36;63.90
15678;BME280;7939;50.814;6.368;2023-05-08T10:31:45;100417.41;;;20.39;63.51
15678;BME280;7939;50.814;6.368;2023-05-08T10:34:16;100402.75;;;20.38;63.62
15678;BME280;7939;50.814;6.368;2023-05-08T10:36:45;100410.44;;;20.41;63.74
15678;BME280;7939;50.814;6.368;2023-05-08T10:39:14;100401.69;;;20.45;63.03
15678;BME280;7939;50.814;6.368;2023-05-08T10:41:41;100411.88;;;20.51;63.02
15678;BME280;7939;50.814;6.368;2023-05-08T10:44:09;100406.63;;;20.53;63.16
15678;BME280;7939;50.814;6.368;2023-05-08T10:46:40;100407.50;;;20.53;62.95
15678;BME280;7939;50.814;6.368;2023-05-08T10:49:15;100404.84;;;20.55;62.93
15678;BME280;7939;50.814;6.368;2023-05-08T10:51:51;100406.50;;;20.57;62.71
15678;BME280;7939;50.814;6.368;2023-05-08T10:54:35;100395.28;;;20.55;62.14
15678;BME280;7939;50.814;6.368;2023-05-08T10:57:08;100397.22;;;20.50;63.02
15678;BME280;7939;50.814;6.368;2023-05-08T10:59:35;100397.22;;;20.50;63.04
15678;BME280;7939;50.814;6.368;2023-05-08T11:02:03;100397.34;;;20.45;63.37
15678;BME280;7939;50.814;6.368;2023-05-08T11:04:30;100396.38;;;20.48;63.03
15678;BME280;7939;50.814;6.368;2023-05-08T11:06:57;100399.81;;;20.50;63.05
15678;BME280;7939;50.814;6.368;2023-05-08T11:09:29;100401.59;;;20.48;63.32
15678;BME280;7939;50.814;6.368;2023-05-08T11:12:06;100398.97;;;20.48;63.06
15678;BME280;7939;50.814;6.368;2023-05-08T11:14:33;100398.97;;;20.50;62.95
15678;BME280;7939;50.814;6.368;2023-05-08T11:17:04;100396.31;;;20.51;62.62
15678;BME280;7939;50.814;6.368;2023-05-08T11:19:33;100391.97;;;20.52;63.00
15678;BME280;7939;50.814;6.368;2023-05-08T11:22:20;100387.75;;;20.47;63.48
15678;BME280;7939;50.814;6.368;2023-05-08T11:24:58;100384.31;;;20.47;63.54
15678;BME280;7939;50.814;6.368;2023-05-08T11:27:32;100383.47;;;20.46;63.68
15678;BME280;7939;50.814;6.368;2023-05-08T11:30:24;100383.50;;;20.45;63.97
15678;BME280;7939;50.814;6.368;2023-05-08T11:33:14;100386.97;;;20.45;63.49
15678;BME280;7939;50.814;6.368;2023-05-08T11:35:47;100382.56;;;20.47;63.53
15678;BME280;7939;50.814;6.368;2023-05-08T11:38:16;100382.63;;;20.46;63.49
15678;BME280;7939;50.814;6.368;2023-05-08T11:40:55;100384.38;;;20.44;63.70
15678;BME280;7939;50.814;6.368;2023-05-08T11:43:54;100380.03;;;20.44;64.07
15678;BME280;7939;50.814;6.368;2023-05-08T11:46:34;100381.06;;;20.39;64.43
15678;BME280;7939;50.814;6.368;2023-05-08T11:49:01;100374.09;;;20.41;64.19
15678;BME280;7939;50.814;6.368;2023-05-08T11:51:30;100377.50;;;20.43;64.10
15678;BME280;7939;50.814;6.368;2023-05-08T11:53:57;100367.88;;;20.46;63.77
15678;BME280;7939;50.814;6.368;2023-05-08T11:56:26;100378.28;;;20.46;63.06
15678;BME280;7939;50.814;6.368;2023-05-08T11:59:01;100380.81;;;20.48;62.96
15678;BME280;7939;50.814;6.368;2023-05-08T12:01:29;100381.72;;;20.47;63.26
15678;BME280;7939;50.814;6.368;2023-05-08T12:04:00;100384.31;;;20.47;63.73
15678;BME280;7939;50.814;6.368;2023-05-08T12:06:27;100385.13;;;20.49;63.36
15678;BME280;7939;50.814;6.368;2023-05-08T12:08:56;100377.38;;;20.47;64.53
15678;BME280;7939;50.814;6.368;2023-05-08T12:11:23;100379.13;;;20.47;64.40
15678;BME280;7939;50.814;6.368;2023-05-08T12:13:51;100374.75;;;20.49;64.09
15678;BME280;7939;50.814;6.368;2023-05-08T12:16:19;100374.69;;;20.51;64.59
15678;BME280;7939;50.814;6.368;2023-05-08T12:18:48;100372.16;;;20.49;64.60
15678;BME280;7939;50.814;6.368;2023-05-08T12:21:15;100374.69;;;20.51;64.66
15678;BME280;7939;50.814;6.368;2023-05-08T12:23:42;100371.19;;;20.52;64.96
15678;BME280;7939;50.814;6.368;2023-05-08T12:26:09;100383.31;;;20.51;65.82
15678;BME280;7939;50.814;6.368;2023-05-08T12:28:37;100384.22;;;20.50;66.33
15678;BME280;7939;50.814;6.368;2023-05-08T12:31:05;100378.97;;;20.52;66.42
15678;BME280;7939;50.814;6.368;2023-05-08T12:33:32;100377.41;;;20.46;66.45
15678;BME280;7939;50.814;6.368;2023-05-08T12:36:00;100378.28;;;20.46;66.73
15678;BME280;7939;50.814;6.368;2023-05-08T12:38:27;100373.94;;;20.47;67.18
15678;BME280;7939;50.814;6.368;2023-05-08T12:40:54;100375.69;;;20.46;67.55
15678;BME280;7939;50.814;6.368;2023-05-08T12:43:30;100380.03;;;20.46;67.30
15678;BME280;7939;50.814;6.368;2023-05-08T12:45:57;100381.81;;;20.42;67.69
15678;BME280;7939;50.814;6.368;2023-05-08T12:48:25;100386.16;;;20.42;68.06
15678;BME280;7939;50.814;6.368;2023-05-08T12:50:52;100388.81;;;20.40;67.87
15678;BME280;7939;50.814;6.368;2023-05-08T12:53:20;100377.56;;;20.40;67.69
15678;BME280;7939;50.814;6.368;2023-05-08T12:55:51;100380.22;;;20.38;68.02
15678;BME280;7939;50.814;6.368;2023-05-08T12:58:19;100381.13;;;20.37;67.93
15678;BME280;7939;50.814;6.368;2023-05-08T13:00:48;100372.50;;;20.37;68.30
15678;BME280;7939;50.814;6.368;2023-05-08T13:03:21;100373.38;;;20.36;68.35
15678;BME280;7939;50.814;6.368;2023-05-08T13:05:49;100372.53;;;20.35;68.37
15678;BME280;7939;50.814;6.368;2023-05-08T13:08:16;100372.53;;;20.35;68.56
15678;BME280;7939;50.814;6.368;2023-05-08T13:10:47;100362.97;;;20.36;68.23